createdAt,value
2018-02-06T00:00:09.247Z,40.50
2018-02-06T00:01:09.764Z,40.52
2018-02-06T00:02:10.179Z,40.49
2018-02-06T00:04:11.114Z,40.44
2018-02-06T00:06:12.048Z,40.38
2018-02-06T00:07:12.516Z,40.35
2018-02-06T00:08:13.026Z,40.35
2018-02-06T00:09:13.449Z,40.34
2018-02-06T00:10:13.914Z,40.34
2018-02-06T00:11:14.431Z,40.39
2018-02-06T00:12:14.848Z,40.41
2018-02-06T00:13:15.314Z,40.43
2018-02-06T00:14:15.785Z,40.46
2018-02-06T00:15:16.248Z,40.50
2018-02-06T00:16:16.715Z,40.53
2018-02-06T00:17:17.182Z,40.57
2018-02-06T00:19:18.111Z,40.66
2018-02-06T00:20:18.583Z,40.69
2018-02-06T00:21:19.051Z,40.73
2018-02-06T00:22:19.515Z,40.79
2018-02-06T00:23:19.983Z,40.82
2018-02-06T00:24:20.449Z,40.88
2018-02-06T00:25:20.916Z,40.92
2018-02-06T00:26:21.377Z,41.00
2018-02-06T00:27:21.850Z,41.08
2018-02-06T00:28:22.316Z,41.15
2018-02-06T00:29:22.782Z,41.22
2018-02-06T00:30:23.244Z,41.27
2018-02-06T00:31:23.715Z,41.35
2018-02-06T00:32:24.183Z,41.43
2018-02-06T00:33:24.647Z,41.49
2018-02-06T00:35:25.581Z,41.59
2018-02-06T00:36:37.533Z,41.65
2018-02-06T00:37:26.510Z,41.66
2018-02-06T00:38:26.982Z,41.72
2018-02-06T00:39:27.460Z,41.80
2018-02-06T00:40:27.917Z,41.85
2018-02-06T00:41:28.428Z,41.91
2018-02-06T00:43:29.316Z,41.92
2018-02-06T00:44:29.783Z,41.91
2018-02-06T00:46:30.716Z,41.89
2018-02-06T00:47:31.183Z,41.89
2018-02-06T00:48:31.644Z,41.90
2018-02-06T00:49:32.116Z,41.90
2018-02-06T00:51:33.048Z,41.95
2018-02-06T00:52:33.512Z,41.96
2018-02-06T00:53:33.981Z,41.98
2018-02-06T00:54:34.450Z,42.01
2018-02-06T00:55:34.915Z,42.04
2018-02-06T00:56:35.390Z,42.09
2018-02-06T00:57:35.850Z,42.10
2018-02-06T00:58:36.316Z,42.14
2018-02-06T00:59:36.778Z,42.16
2018-02-06T01:00:37.248Z,42.15
2018-02-06T01:01:37.765Z,42.16
2018-02-06T01:02:38.181Z,42.18
2018-02-06T01:03:38.649Z,42.17
2018-02-06T01:04:39.117Z,42.15
2018-02-06T01:05:39.582Z,42.19
2018-02-06T01:06:40.050Z,42.20
2018-02-06T01:07:40.515Z,42.25
2018-02-06T01:08:40.983Z,42.27
2018-02-06T01:09:41.448Z,42.32
2018-02-06T01:10:41.919Z,42.34
2018-02-06T01:11:42.638Z,42.33
2018-02-06T01:12:42.851Z,42.34
2018-02-06T01:13:43.317Z,42.45
2018-02-06T01:14:43.785Z,42.48
2018-02-06T01:15:44.249Z,42.50
2018-02-06T01:16:44.719Z,42.52
2018-02-06T01:17:45.185Z,42.57
2018-02-06T01:18:45.652Z,42.62
2018-02-06T01:19:46.117Z,42.63
2018-02-06T01:20:46.585Z,42.67
2018-02-06T01:21:47.046Z,42.70
2018-02-06T01:22:47.519Z,42.69
2018-02-06T01:23:47.985Z,42.72
2018-02-06T01:24:48.454Z,42.73
2018-02-06T01:25:48.916Z,42.76
2018-02-06T01:26:49.385Z,42.76
2018-02-06T01:27:49.851Z,42.77
2018-02-06T01:28:50.313Z,42.79
2018-02-06T01:29:50.784Z,42.77
2018-02-06T01:30:51.256Z,42.77
2018-02-06T01:31:51.717Z,42.76
2018-02-06T01:32:52.182Z,42.74
2018-02-06T01:33:52.651Z,42.72
2018-02-06T01:34:53.122Z,42.68
2018-02-06T01:35:53.586Z,42.68
2018-02-06T01:36:54.055Z,42.66
2018-02-06T01:37:54.520Z,42.63
2018-02-06T01:38:54.986Z,42.61
2018-02-06T01:39:55.447Z,42.58
2018-02-06T01:40:55.963Z,42.57
2018-02-06T01:41:56.386Z,42.56
2018-02-06T01:42:56.854Z,42.52
2018-02-06T01:43:57.316Z,42.48
2018-02-06T01:44:57.788Z,42.43
2018-02-06T01:45:58.253Z,42.39
2018-02-06T01:47:59.187Z,42.33
2018-02-06T01:48:59.655Z,42.30
2018-02-06T01:50:00.120Z,42.21
2018-02-06T01:51:00.785Z,42.18
2018-02-06T01:52:01.054Z,42.09
2018-02-06T01:53:01.572Z,42.09
2018-02-06T01:54:01.990Z,42.07
2018-02-06T01:55:02.451Z,42.03
2018-02-06T01:56:02.921Z,42.04
2018-02-06T01:57:03.387Z,42.04
2018-02-06T01:58:03.854Z,42.00
2018-02-06T01:59:04.327Z,41.99
2018-02-06T02:00:04.788Z,41.97
2018-02-06T02:01:05.457Z,41.98
2018-02-06T02:02:05.716Z,41.96
2018-02-06T02:03:06.188Z,41.96
2018-02-06T02:04:06.655Z,41.98
2018-02-06T02:05:07.119Z,41.97
2018-02-06T02:06:07.587Z,41.96
2018-02-06T02:08:08.521Z,42.04
2018-02-06T02:09:08.988Z,42.08
2018-02-06T02:10:09.454Z,42.13
2018-02-06T02:11:09.922Z,42.18
2018-02-06T02:12:10.400Z,42.22
2018-02-06T02:13:10.852Z,42.26
2018-02-06T02:14:11.326Z,42.29
2018-02-06T02:15:11.791Z,42.37
2018-02-06T02:16:12.252Z,42.37
2018-02-06T02:18:13.236Z,42.44
2018-02-06T02:19:13.656Z,42.49
2018-02-06T02:20:14.114Z,42.51
2018-02-06T02:21:14.587Z,42.59
2018-02-06T02:22:15.052Z,42.64
2018-02-06T02:23:15.519Z,42.67
2018-02-06T02:24:15.982Z,42.68
2018-02-06T02:25:16.454Z,42.69
2018-02-06T02:26:16.918Z,42.72
2018-02-06T02:27:17.384Z,42.73
2018-02-06T02:29:18.318Z,42.76
2018-02-06T02:30:18.784Z,42.75
2018-02-06T02:31:19.249Z,42.73
2018-02-06T02:32:19.717Z,42.73
2018-02-06T02:33:20.186Z,42.76
2018-02-06T02:34:20.651Z,42.78
2018-02-06T02:35:21.115Z,42.81
2018-02-06T02:36:21.584Z,42.81
2018-02-06T02:37:22.051Z,42.87
2018-02-06T02:40:23.450Z,42.95
2018-02-06T02:41:23.918Z,42.97
2018-02-06T04:39:18.516Z,40.96
2018-02-06T04:40:19.031Z,40.93
2018-02-06T04:41:19.446Z,40.89
2018-02-06T04:42:19.913Z,40.83
2018-02-06T04:43:20.381Z,40.78
2018-02-06T04:44:20.843Z,40.73
2018-02-06T04:45:21.315Z,40.69
2018-02-06T04:47:22.246Z,40.68
2018-02-06T04:48:22.709Z,40.63
2018-02-06T04:49:23.181Z,40.60
2018-02-06T04:51:24.113Z,40.54
2018-02-06T04:52:24.581Z,40.56
2018-02-06T04:53:25.048Z,40.53
2018-02-06T04:54:25.514Z,40.51
2018-02-06T04:55:26.178Z,40.48
2018-02-06T04:56:26.498Z,40.45
2018-02-06T04:57:26.911Z,40.46
2018-02-06T04:58:27.381Z,40.46
2018-02-06T04:59:27.839Z,40.45
2018-02-06T05:00:28.311Z,40.46
2018-02-06T05:01:28.777Z,40.44
2018-02-06T05:02:29.247Z,40.42
2018-02-06T05:03:29.711Z,40.41
2018-02-06T05:04:30.178Z,40.38
2018-02-06T05:06:31.107Z,40.35
2018-02-06T05:07:31.577Z,40.33
2018-02-06T05:08:32.043Z,40.29
2018-02-06T05:09:32.512Z,40.29
2018-02-06T05:10:32.977Z,40.28
2018-02-06T05:11:33.444Z,40.25
2018-02-06T05:12:33.910Z,40.25
2018-02-06T05:13:34.376Z,40.23
2018-02-06T05:14:34.842Z,40.21
2018-02-06T05:15:35.311Z,40.18
2018-02-06T05:16:47.775Z,40.21
2018-02-06T05:17:36.241Z,40.18
2018-02-06T05:18:36.708Z,40.13
2018-02-06T05:19:37.172Z,40.10
2018-02-06T05:20:37.640Z,40.08
2018-02-06T05:21:38.102Z,40.06
2018-02-06T05:23:39.038Z,40.02
2018-02-06T05:24:39.508Z,40.00
2018-02-06T05:26:40.442Z,39.97
2018-02-06T05:27:40.904Z,39.97
2018-02-06T05:28:41.366Z,39.97
2018-02-06T05:29:41.839Z,39.97
2018-02-06T05:30:42.306Z,39.97
2018-02-06T05:31:42.821Z,39.95
2018-02-06T05:32:43.237Z,39.97
2018-02-06T05:33:43.702Z,39.95
2018-02-06T05:34:44.170Z,39.94
2018-02-06T05:35:44.634Z,39.95
2018-02-06T05:36:45.096Z,39.95
2018-02-06T05:37:45.567Z,39.94
2018-02-06T05:38:46.034Z,39.95
2018-02-06T05:39:46.499Z,39.99
2018-02-06T05:40:46.967Z,40.05
2018-02-06T05:41:58.810Z,40.06
2018-02-06T05:43:48.365Z,40.13
2018-02-06T05:44:48.834Z,40.09
2018-02-06T05:45:49.297Z,40.07
2018-02-06T05:46:49.814Z,40.06
2018-02-06T05:47:50.231Z,40.05
2018-02-06T05:48:50.693Z,40.04
2018-02-06T05:49:51.164Z,40.00
2018-02-06T05:50:51.628Z,40.02
2018-02-06T05:53:04.804Z,40.03
2018-02-06T05:53:53.029Z,40.00
2018-02-06T05:54:53.495Z,40.01
2018-02-06T05:55:53.960Z,39.99
2018-02-06T05:56:54.427Z,39.95
2018-02-06T05:58:55.360Z,39.90
2018-02-06T05:59:55.825Z,39.93
2018-02-06T06:00:56.293Z,39.97
2018-02-06T06:01:56.759Z,39.97
2018-02-06T06:02:57.221Z,40.00
2018-02-06T06:03:57.689Z,39.99
2018-02-06T06:04:58.157Z,39.97
2018-02-06T06:05:58.621Z,39.98
2018-02-06T06:06:59.090Z,40.00
2018-02-06T06:07:59.555Z,39.99
2018-02-06T06:09:00.028Z,40.00
2018-02-06T06:10:00.487Z,39.96
2018-02-06T06:11:00.954Z,39.92
2018-02-06T06:12:01.420Z,39.91
2018-02-06T06:13:01.935Z,39.90
2018-02-06T06:14:02.352Z,39.89
2018-02-06T06:15:02.818Z,39.84
2018-02-06T06:16:03.283Z,39.82
2018-02-06T06:18:04.216Z,39.85
2018-02-06T06:19:04.684Z,39.88
2018-02-06T06:20:05.144Z,39.86
2018-02-06T06:21:05.616Z,39.84
2018-02-06T06:22:06.076Z,39.84
2018-02-06T06:23:17.823Z,39.87
2018-02-06T06:24:07.018Z,39.86
2018-02-06T06:25:07.479Z,39.84
2018-02-06T06:28:08.878Z,39.82
2018-02-06T06:29:09.339Z,39.82
2018-02-06T06:30:09.809Z,39.84
2018-02-06T06:31:10.271Z,39.89
2018-02-06T06:32:10.741Z,39.88
2018-02-06T06:33:11.205Z,39.88
2018-02-06T06:34:11.674Z,39.89
2018-02-06T06:35:12.140Z,39.92
2018-02-06T06:36:12.604Z,39.92
2018-02-06T06:37:13.069Z,39.92
2018-02-06T06:38:13.537Z,39.95
2018-02-06T06:39:14.004Z,39.95
2018-02-06T06:41:14.935Z,39.95
2018-02-06T06:42:15.397Z,39.92
2018-02-06T06:43:15.865Z,39.90
2018-02-06T06:44:16.332Z,39.88
2018-02-06T06:46:17.265Z,39.85
2018-02-06T06:47:17.731Z,39.84
2018-02-06T06:48:18.247Z,39.84
2018-02-06T06:49:18.657Z,39.80
2018-02-06T06:50:19.129Z,39.80
2018-02-06T06:51:19.594Z,39.82
2018-02-06T06:52:20.061Z,39.82
2018-02-06T06:53:20.525Z,39.82
2018-02-06T06:54:20.992Z,39.82
2018-02-06T06:55:21.459Z,39.77
2018-02-06T06:56:21.925Z,39.76
2018-02-06T06:57:22.389Z,39.71
2018-02-06T06:58:22.855Z,39.68
2018-02-06T06:59:23.321Z,39.63
2018-02-06T07:00:23.787Z,39.62
2018-02-06T07:01:24.247Z,39.58
2018-02-06T07:02:24.723Z,39.57
2018-02-06T07:03:25.186Z,39.53
2018-02-06T07:04:25.651Z,39.52
2018-02-06T07:06:26.583Z,39.51
2018-02-06T07:07:27.044Z,39.51
2018-02-06T07:09:27.979Z,39.51
2018-02-06T07:10:28.446Z,39.47
2018-02-06T07:11:28.914Z,39.46
2018-02-06T07:12:29.375Z,39.47
2018-02-06T07:13:29.896Z,39.44
2018-02-06T07:14:30.311Z,39.44
2018-02-06T07:15:30.776Z,39.39
2018-02-06T07:16:31.237Z,39.41
2018-02-06T07:17:31.709Z,39.34
2018-02-06T07:20:33.106Z,39.33
2018-02-06T07:21:33.573Z,39.33
2018-02-06T07:22:34.034Z,39.36
2018-02-06T07:23:34.504Z,39.33
2018-02-06T07:24:34.970Z,39.35
2018-02-06T07:25:35.435Z,39.31
2018-02-06T07:26:35.897Z,39.30
2018-02-06T07:27:36.369Z,39.33
2018-02-06T07:28:36.836Z,39.33
2018-02-06T07:29:37.298Z,39.30
2018-02-06T07:30:37.766Z,39.29
2018-02-06T07:31:38.232Z,39.31
2018-02-06T07:32:38.698Z,39.32
2018-02-06T07:33:39.163Z,39.31
2018-02-06T07:34:39.679Z,39.36
2018-02-06T07:35:40.091Z,39.36
2018-02-06T07:36:40.562Z,39.37
2018-02-06T07:37:41.029Z,39.36
2018-02-06T07:38:41.495Z,39.37
2018-02-06T07:39:41.955Z,39.42
2018-02-06T07:40:42.426Z,39.42
2018-02-06T07:41:42.891Z,39.40
2018-02-06T07:42:43.354Z,39.41
2018-02-06T07:43:43.824Z,39.43
2018-02-06T07:44:44.290Z,39.45
2018-02-06T07:45:44.757Z,39.48
2018-02-06T07:46:45.217Z,39.48
2018-02-06T07:47:45.690Z,39.47
2018-02-06T07:48:46.153Z,39.46
2018-02-06T07:49:46.622Z,39.46
2018-02-06T07:50:47.091Z,39.48
2018-02-06T07:51:47.556Z,39.49
2018-02-06T07:52:48.019Z,39.52
2018-02-06T07:53:48.486Z,39.55
2018-02-06T07:54:49.001Z,39.53
2018-02-06T07:55:49.449Z,39.56
2018-02-06T07:56:49.882Z,39.52
2018-02-06T07:57:50.349Z,39.52
2018-02-06T07:58:50.817Z,39.50
2018-02-06T07:59:51.333Z,39.55
2018-02-06T08:00:51.748Z,39.59
2018-02-06T08:01:52.210Z,39.64
2018-02-06T08:02:52.682Z,39.68
2018-02-06T08:04:53.616Z,39.73
2018-02-06T08:05:54.080Z,39.75
2018-02-06T08:06:54.548Z,39.79
2018-02-06T08:07:55.012Z,39.79
2018-02-06T08:08:55.482Z,39.79
2018-02-06T08:09:55.946Z,39.78
2018-02-06T08:11:56.876Z,39.85
2018-02-06T08:12:57.347Z,39.86
2018-02-06T08:13:57.813Z,39.85
2018-02-06T08:14:58.331Z,39.88
2018-02-06T08:15:58.747Z,39.91
2018-02-06T08:16:59.213Z,39.97
2018-02-06T08:17:59.680Z,40.01
2018-02-06T08:19:00.148Z,40.06
2018-02-06T08:20:00.610Z,40.07
2018-02-06T08:22:01.547Z,40.20
2018-02-06T08:23:02.016Z,40.20
2018-02-06T08:24:02.482Z,40.24
2018-02-06T08:25:02.949Z,40.24
2018-02-06T08:27:03.878Z,40.30
2018-02-06T08:28:04.350Z,40.32
2018-02-06T08:29:04.816Z,40.34
2018-02-06T08:30:05.284Z,40.34
2018-02-06T08:32:06.218Z,40.30
2018-02-06T08:33:06.684Z,40.29
2018-02-06T08:35:07.670Z,40.35
2018-02-06T08:36:08.086Z,40.39
2018-02-06T08:37:08.553Z,40.38
2018-02-06T08:38:09.021Z,40.37
2018-02-06T08:39:09.489Z,40.32
2018-02-06T08:40:09.957Z,40.33
2018-02-06T08:41:10.427Z,40.33
2018-02-06T08:42:10.890Z,40.36
2018-02-06T08:43:11.357Z,40.36
2018-02-06T08:44:11.825Z,40.32
2018-02-06T08:45:12.293Z,40.31
2018-02-06T08:46:12.756Z,40.32
2018-02-06T08:47:13.237Z,40.33
2018-02-06T08:48:13.696Z,40.36
2018-02-06T08:49:14.165Z,40.37
2018-02-06T08:50:14.630Z,40.40
2018-02-06T08:51:15.101Z,40.46
2018-02-06T08:52:15.564Z,40.55
2018-02-06T08:53:16.036Z,40.61
2018-02-06T08:54:16.501Z,40.66
2018-02-06T08:55:17.018Z,40.64
2018-02-06T08:56:17.471Z,40.68
2018-02-06T08:57:17.904Z,40.71
2018-02-06T08:58:18.371Z,40.71
2018-02-06T08:59:18.836Z,40.69
2018-02-06T09:01:19.827Z,40.57
2018-02-06T09:03:20.709Z,40.48
2018-02-06T09:04:21.183Z,40.45
2018-02-06T09:05:21.649Z,40.44
2018-02-06T09:08:23.055Z,40.43
2018-02-06T09:09:23.519Z,40.47
2018-02-06T09:10:23.993Z,40.51
2018-02-06T09:11:24.510Z,40.51
2018-02-06T09:12:24.929Z,40.50
2018-02-06T09:13:25.396Z,40.52
2018-02-06T09:14:25.861Z,40.55
2018-02-06T09:15:26.334Z,40.55
2018-02-06T09:16:26.833Z,40.54
2018-02-06T09:18:27.741Z,40.57
2018-02-06T09:19:28.208Z,40.55
2018-02-06T09:20:28.678Z,40.55
2018-02-06T09:21:29.146Z,40.56
2018-02-06T09:22:29.616Z,40.54
2018-02-06T09:23:30.079Z,40.53
2018-02-06T09:24:30.555Z,40.52
2018-02-06T09:25:31.020Z,40.51
2018-02-06T09:26:31.492Z,40.48
2018-02-06T09:27:31.960Z,40.47
2018-02-06T09:28:32.430Z,40.47
2018-02-06T09:29:32.893Z,40.48
2018-02-06T09:30:33.367Z,40.46
2018-02-06T09:31:33.836Z,40.45
2018-02-06T09:32:34.305Z,40.47
2018-02-06T09:33:34.776Z,40.47
2018-02-06T09:34:35.243Z,40.48
2018-02-06T09:35:35.712Z,40.49
2018-02-06T09:37:36.650Z,40.45
2018-02-06T09:38:37.120Z,40.45
2018-02-06T09:39:37.628Z,40.43
2018-02-06T09:40:38.055Z,40.42
2018-02-06T09:41:38.527Z,40.39
2018-02-06T09:44:39.934Z,40.35
2018-02-06T09:45:40.405Z,40.32
2018-02-06T09:46:40.875Z,40.33
2018-02-06T09:47:41.396Z,40.35
2018-02-06T09:48:41.815Z,40.33
2018-02-06T09:49:42.286Z,40.35
2018-02-06T09:50:42.756Z,40.34
2018-02-06T09:52:43.743Z,40.38
2018-02-06T09:53:44.162Z,40.41
2018-02-06T09:54:44.634Z,40.43
2018-02-06T09:55:45.104Z,40.46
2018-02-06T09:56:45.572Z,40.46
2018-02-06T09:57:46.088Z,40.47
2018-02-06T09:58:46.512Z,40.50
2018-02-06T09:59:46.983Z,40.50
2018-02-06T10:00:47.451Z,40.54
2018-02-06T10:01:47.922Z,40.56
2018-02-06T10:03:00.026Z,40.53
2018-02-06T10:03:48.862Z,40.54
2018-02-06T10:04:49.371Z,40.54
2018-02-06T10:05:49.803Z,40.55
2018-02-06T10:06:50.273Z,40.55
2018-02-06T10:08:51.213Z,40.59
2018-02-06T10:09:51.684Z,40.60
2018-02-06T10:10:52.160Z,40.58
2018-02-06T10:11:52.625Z,40.58
2018-02-06T10:12:53.095Z,40.62
2018-02-06T10:15:54.502Z,40.66
2018-02-06T10:16:54.997Z,40.67
2018-02-06T10:17:55.452Z,40.68
2018-02-06T10:18:55.969Z,40.69
2018-02-06T10:19:56.384Z,40.71
2018-02-06T10:20:56.858Z,40.74
2018-02-06T10:21:57.330Z,40.76
2018-02-06T10:22:57.801Z,40.79
2018-02-06T10:23:58.270Z,40.77
2018-02-06T10:25:59.210Z,40.77
2018-02-06T10:26:59.677Z,40.77
2018-02-06T10:28:00.151Z,40.79
2018-02-06T10:30:13.033Z,40.77
2018-02-06T10:31:01.562Z,40.79
2018-02-06T10:32:02.036Z,40.78
2018-02-06T10:33:02.506Z,40.73
2018-02-06T10:34:02.980Z,40.70
2018-02-06T10:36:03.920Z,40.70
2018-02-06T10:37:04.391Z,40.68
2018-02-06T10:38:04.854Z,40.68
2018-02-06T10:39:05.329Z,40.71
2018-02-06T10:40:05.803Z,40.71
2018-02-06T10:41:06.272Z,40.70
2018-02-06T10:42:06.738Z,40.67
2018-02-06T10:43:07.214Z,40.65
2018-02-06T10:44:07.685Z,40.67
2018-02-06T10:45:08.155Z,40.66
2018-02-06T10:46:08.677Z,40.66
2018-02-06T10:47:09.099Z,40.63
2018-02-06T10:48:09.563Z,40.67
2018-02-06T10:49:10.040Z,40.69
2018-02-06T10:50:10.510Z,40.72
2018-02-06T10:51:10.980Z,40.70
2018-02-06T10:52:11.448Z,40.70
2018-02-06T10:53:11.926Z,40.75
2018-02-06T10:54:12.394Z,40.71
2018-02-06T10:55:12.866Z,40.69
2018-02-06T10:57:13.807Z,40.68
2018-02-06T10:58:14.279Z,40.70
2018-02-06T10:59:14.746Z,40.75
2018-02-06T11:00:15.221Z,40.76
2018-02-06T11:02:16.163Z,40.76
2018-02-06T11:03:16.631Z,40.72
2018-02-06T11:04:17.108Z,40.69
2018-02-06T11:05:17.577Z,40.64
2018-02-06T11:07:18.515Z,40.67
2018-02-06T11:08:18.999Z,40.65
2018-02-06T11:09:19.461Z,40.71
2018-02-06T11:10:19.950Z,40.78
2018-02-06T11:11:20.450Z,40.83
2018-02-06T11:12:20.876Z,40.86
2018-02-06T11:13:21.346Z,40.88
2018-02-06T11:14:21.811Z,40.91
2018-02-06T11:16:34.094Z,40.92
2018-02-06T11:17:23.235Z,40.97
2018-02-06T11:18:23.697Z,40.97
2018-02-06T11:19:24.173Z,40.97
2018-02-06T11:20:24.646Z,40.99
2018-02-06T11:21:25.120Z,40.98
2018-02-06T11:22:25.587Z,40.96
2018-02-06T11:24:26.531Z,40.96
2018-02-06T11:25:26.998Z,40.95
2018-02-06T11:26:39.110Z,40.93
2018-02-06T11:27:27.945Z,40.92
2018-02-06T11:28:28.416Z,40.90
2018-02-06T11:29:28.888Z,40.86
2018-02-06T11:30:29.354Z,40.84
2018-02-06T11:31:29.829Z,40.81
2018-02-06T11:32:30.300Z,40.79
2018-02-06T11:33:30.773Z,40.78
2018-02-06T11:34:31.244Z,40.75
2018-02-06T11:35:31.711Z,40.73
2018-02-06T11:36:32.238Z,40.68
2018-02-06T11:38:33.132Z,40.64
2018-02-06T11:39:33.602Z,40.60
2018-02-06T11:40:34.075Z,40.60
2018-02-06T11:41:34.594Z,40.63
2018-02-06T11:42:35.016Z,40.63
2018-02-06T11:43:35.487Z,40.53
2018-02-06T11:44:35.961Z,40.52
2018-02-06T11:45:36.431Z,40.57
2018-02-06T11:46:36.948Z,40.58
2018-02-06T11:47:37.372Z,40.59
2018-02-06T11:48:37.849Z,40.60
2018-02-06T11:49:38.321Z,40.62
2018-02-06T11:50:38.789Z,40.59
2018-02-06T11:51:39.310Z,40.58
2018-02-06T11:52:39.735Z,40.61
2018-02-06T11:53:40.203Z,40.63
2018-02-06T11:54:40.671Z,40.63
2018-02-06T11:55:41.147Z,40.63
2018-02-06T11:57:42.091Z,40.64
2018-02-06T11:58:42.562Z,40.66
2018-02-06T11:59:43.038Z,40.69
2018-02-06T12:01:43.974Z,40.69
2018-02-06T12:02:44.455Z,40.71
2018-02-06T12:03:44.925Z,40.72
2018-02-06T12:04:45.392Z,40.70
2018-02-06T12:05:45.867Z,40.69
2018-02-06T12:06:46.338Z,40.69
2018-02-06T12:07:46.809Z,40.69
2018-02-06T12:08:47.282Z,40.69
2018-02-06T12:09:47.757Z,40.69
2018-02-06T12:10:48.221Z,40.71
2018-02-06T12:12:49.171Z,40.78
2018-02-06T12:13:49.642Z,40.81
2018-02-06T12:14:50.110Z,40.82
2018-02-06T12:15:50.586Z,40.84
2018-02-06T12:16:51.112Z,40.84
2018-02-06T12:17:51.533Z,40.85
2018-02-06T12:18:52.006Z,40.85
2018-02-06T12:19:52.472Z,40.88
2018-02-06T12:20:52.948Z,40.90
2018-02-06T12:22:05.159Z,40.90
2018-02-06T12:22:53.894Z,40.88
2018-02-06T12:25:55.311Z,40.94
2018-02-06T12:26:55.779Z,40.96
2018-02-06T12:27:56.254Z,40.99
2018-02-06T12:28:56.727Z,41.00
2018-02-06T12:29:57.200Z,40.99
2018-02-06T12:30:57.667Z,41.00
2018-02-06T12:32:10.187Z,41.01
2018-02-06T12:32:58.618Z,41.00
2018-02-06T12:33:59.089Z,41.04
2018-02-06T12:34:59.560Z,41.05
2018-02-06T12:36:00.036Z,41.08
2018-02-06T12:37:00.507Z,41.11
2018-02-06T12:38:00.979Z,41.11
2018-02-06T12:39:01.451Z,41.09
2018-02-06T12:40:01.923Z,41.10
2018-02-06T12:41:02.398Z,41.09
2018-02-06T12:42:02.920Z,41.12
2018-02-06T12:43:03.340Z,41.15
2018-02-06T12:44:03.808Z,41.17
2018-02-06T12:45:04.286Z,41.19
2018-02-06T12:49:06.176Z,41.19
2018-02-06T12:51:07.118Z,41.16
2018-02-06T12:52:19.174Z,41.18
2018-02-06T12:53:08.068Z,41.21
2018-02-06T12:54:08.539Z,41.23
2018-02-06T12:55:09.012Z,41.21
2018-02-06T12:56:09.484Z,41.21
2018-02-06T12:58:10.434Z,41.25
2018-02-06T12:59:10.903Z,41.23
2018-02-06T13:00:11.378Z,41.23
2018-02-06T13:01:11.845Z,41.26
2018-02-06T13:04:13.266Z,41.30
2018-02-06T13:05:13.742Z,41.34
2018-02-06T13:07:14.685Z,41.37
2018-02-06T13:08:15.162Z,41.35
2018-02-06T13:09:15.627Z,41.37
2018-02-06T13:10:16.104Z,41.41
2018-02-06T13:11:16.570Z,41.43
2018-02-06T13:12:29.187Z,41.46
2018-02-06T13:13:17.522Z,41.48
2018-02-06T13:14:17.995Z,41.48
2018-02-06T13:15:18.469Z,41.49
2018-02-06T13:16:18.941Z,41.53
2018-02-06T13:17:19.463Z,41.54
2018-02-06T13:18:19.881Z,41.57
2018-02-06T13:20:20.832Z,41.59
2018-02-06T13:21:21.304Z,41.61
2018-02-06T13:22:21.774Z,41.64
2018-02-06T13:23:22.251Z,41.65
2018-02-06T13:24:22.723Z,41.66
2018-02-06T13:25:23.198Z,41.66
2018-02-06T13:26:23.673Z,41.64
2018-02-06T13:27:36.230Z,41.65
2018-02-06T13:28:24.616Z,41.65
2018-02-06T13:29:25.090Z,41.65
2018-02-06T13:30:25.573Z,41.63
2018-02-06T13:31:26.035Z,41.63
2018-02-06T13:32:38.263Z,41.62
2018-02-06T13:33:26.982Z,41.61
2018-02-06T13:34:27.454Z,41.62
2018-02-06T13:35:27.928Z,41.62
2018-02-06T13:36:28.411Z,41.64
2018-02-06T13:38:29.347Z,41.67
2018-02-06T13:39:29.819Z,41.65
2018-02-06T13:40:30.293Z,41.67
2018-02-06T13:41:30.766Z,41.65
2018-02-06T13:42:31.233Z,41.70
2018-02-06T13:43:31.712Z,41.70
2018-02-06T13:44:32.189Z,41.71
2018-02-06T13:45:32.659Z,41.71
2018-02-06T13:46:33.132Z,41.68
2018-02-06T13:47:33.604Z,41.68
2018-02-06T13:48:34.078Z,41.69
2018-02-06T13:49:34.548Z,41.69
2018-02-06T13:50:35.080Z,41.68
2018-02-06T13:51:35.500Z,41.69
2018-02-06T13:52:35.973Z,41.68
2018-02-06T13:53:36.444Z,41.69
2018-02-06T13:54:36.920Z,41.67
2018-02-06T13:55:37.391Z,41.66
2018-02-06T13:56:37.865Z,41.68
2018-02-06T13:57:38.385Z,41.69
2018-02-06T13:58:38.812Z,41.67
2018-02-06T13:59:39.284Z,41.64
2018-02-06T14:00:39.759Z,41.64
2018-02-06T14:01:40.231Z,41.63
2018-02-06T14:02:40.762Z,41.63
2018-02-06T14:03:41.178Z,41.60
2018-02-06T14:04:41.649Z,41.56
2018-02-06T14:05:42.130Z,41.55
2018-02-06T14:06:42.599Z,41.52
2018-02-06T14:07:43.076Z,41.52
2018-02-06T14:08:43.543Z,41.51
2018-02-06T14:09:44.020Z,41.50
2018-02-06T14:10:44.494Z,41.45
2018-02-06T14:11:44.967Z,41.40
2018-02-06T14:13:45.915Z,41.40
2018-02-06T14:14:46.390Z,41.40
2018-02-06T14:15:46.857Z,41.40
2018-02-06T14:16:47.331Z,41.38
2018-02-06T14:17:47.854Z,41.37
2018-02-06T14:18:48.284Z,41.34
2018-02-06T14:19:48.757Z,41.34
2018-02-06T14:20:49.230Z,41.32
2018-02-06T14:21:49.702Z,41.33
2018-02-06T14:22:50.177Z,41.29
2018-02-06T14:23:50.652Z,41.29
2018-02-06T14:24:51.125Z,41.24
2018-02-06T14:25:51.598Z,41.25
2018-02-06T14:26:52.068Z,41.25
2018-02-06T14:27:52.544Z,41.24
2018-02-06T14:28:53.056Z,41.25
2018-02-06T14:29:53.492Z,41.23
2018-02-06T14:30:53.967Z,41.23
2018-02-06T14:31:54.445Z,41.23
2018-02-06T14:32:54.913Z,41.24
2018-02-06T14:33:55.385Z,41.21
2018-02-06T14:34:55.860Z,41.23
2018-02-06T14:35:56.332Z,41.22
2018-02-06T14:36:56.805Z,41.22
2018-02-06T14:37:57.277Z,41.22
2018-02-06T14:38:57.755Z,41.22
2018-02-06T14:39:58.227Z,41.21
2018-02-06T14:40:58.702Z,41.22
2018-02-06T14:41:59.172Z,41.20
2018-02-06T14:43:11.281Z,41.17
2018-02-06T14:44:00.126Z,41.18
2018-02-06T14:45:00.596Z,41.19
2018-02-06T14:46:01.071Z,41.19
2018-02-06T14:47:01.547Z,41.19
2018-02-06T14:49:02.492Z,41.15
2018-02-06T14:50:02.965Z,41.15
2018-02-06T14:52:03.913Z,41.16
2018-02-06T14:53:04.437Z,41.16
2018-02-06T14:54:04.860Z,41.17
2018-02-06T14:55:05.338Z,41.19
2018-02-06T14:56:05.810Z,41.23
2018-02-06T14:57:06.279Z,41.24
2018-02-06T14:59:07.230Z,41.23
2018-02-06T15:00:07.704Z,41.21
2018-02-06T15:01:08.178Z,41.21
2018-02-06T15:02:08.647Z,41.23
2018-02-06T15:05:10.073Z,41.28
2018-02-06T15:06:10.542Z,41.28
2018-02-06T15:07:11.020Z,41.29
2018-02-06T15:08:11.494Z,41.27
2018-02-06T15:10:12.444Z,41.27
2018-02-06T15:11:12.919Z,41.28
2018-02-06T15:12:13.390Z,41.30
2018-02-06T15:13:13.873Z,41.31
2018-02-06T15:14:14.338Z,41.31
2018-02-06T15:15:14.812Z,41.33
2018-02-06T15:16:15.280Z,41.31
2018-02-06T15:17:15.792Z,41.30
2018-02-06T15:18:16.283Z,41.28
2018-02-06T15:19:16.709Z,41.30
2018-02-06T15:20:17.176Z,41.30
2018-02-06T15:21:17.654Z,41.28
2018-02-06T15:22:18.129Z,41.30
2018-02-06T15:24:19.128Z,41.27
2018-02-06T15:25:19.552Z,41.27
2018-02-06T15:26:20.026Z,41.27
2018-02-06T15:27:20.498Z,41.28
2018-02-06T15:28:21.000Z,41.26
2018-02-06T15:29:21.446Z,41.22
2018-02-06T15:30:21.920Z,41.20
2018-02-06T15:31:22.394Z,41.18
2018-02-06T15:32:22.868Z,41.16
2018-02-06T15:33:23.343Z,41.13
2018-02-06T15:34:23.867Z,41.01
2018-02-06T15:35:24.290Z,40.97
2018-02-06T15:36:24.762Z,40.96
2018-02-06T15:37:25.241Z,40.94
2018-02-06T15:38:25.710Z,40.89
2018-02-06T15:39:26.230Z,40.88
2018-02-06T15:40:26.658Z,40.87
2018-02-06T15:41:27.131Z,40.81
2018-02-06T15:42:27.606Z,40.76
2018-02-06T15:43:28.078Z,40.75
2018-02-06T15:44:28.603Z,40.71
2018-02-06T15:46:29.495Z,40.62
2018-02-06T15:49:42.304Z,40.48
2018-02-06T15:50:31.394Z,40.42
2018-02-06T15:51:31.865Z,40.36
2018-02-06T15:52:32.341Z,40.34
2018-02-06T15:54:33.289Z,40.27
2018-02-06T15:55:33.764Z,40.25
2018-02-06T15:56:34.236Z,40.20
2018-02-06T15:57:34.708Z,40.16
2018-02-06T15:58:35.181Z,40.14
2018-02-06T15:59:35.652Z,40.11
2018-02-06T16:00:36.124Z,40.05
2018-02-06T16:01:36.600Z,40.04
2018-02-06T16:02:37.074Z,40.03
2018-02-06T16:03:37.546Z,39.97
2018-02-06T16:04:38.020Z,39.94
2018-02-06T16:05:38.493Z,39.95
2018-02-06T16:06:38.966Z,39.91
2018-02-06T16:07:39.440Z,39.90
2018-02-06T16:08:39.916Z,39.88
2018-02-06T16:09:40.386Z,39.85
2018-02-06T16:10:40.861Z,39.85
2018-02-06T16:11:41.334Z,39.81
2018-02-06T16:12:41.805Z,39.80
2018-02-06T16:13:42.281Z,39.79
2018-02-06T16:14:42.804Z,39.79
2018-02-06T16:15:43.230Z,39.75
2018-02-06T16:16:43.700Z,39.76
2018-02-06T16:17:44.173Z,39.75
2018-02-06T16:18:44.692Z,39.71
2018-02-06T16:19:45.169Z,39.68